sensor_id;sensor_type;location;lat;lon;timestamp;pressure;altitude;pressure_sealevel;temperature;humidity
61870;BME280;47810;42.264;23.826;2022-12-29T00:01:49;94829.19;;;4.20;79.96
61870;BME280;47810;42.264;23.826;2022-12-29T00:04:15;94823.41;;;4.07;80.36
61870;BME280;47810;42.264;23.826;2022-12-29T00:06:41;94825.91;;;4.12;80.20
61870;BME280;47810;42.264;23.826;2022-12-29T00:09:07;94815.53;;;4.09;80.56
61870;BME280;47810;42.264;23.826;2022-12-29T00:11:33;94819.88;;;4.10;80.54
61870;BME280;47810;42.264;23.826;2022-12-29T00:13:58;94817.94;;;4.16;80.53
61870;BME280;47810;42.264;23.826;2022-12-29T00:16:43;94818.81;;;4.17;79.86
61870;BME280;47810;42.264;23.826;2022-12-29T00:19:09;94811.72;;;4.22;79.25
61870;BME280;47810;42.264;23.826;2022-12-29T00:21:55;94822.22;;;4.20;79.29
61870;BME280;47810;42.264;23.826;2022-12-29T00:24:39;94820.31;;;4.27;79.11
61870;BME280;47810;42.264;23.826;2022-12-29T00:27:20;94824.63;;;4.28;78.65
61870;BME280;47810;42.264;23.826;2022-12-29T00:30:14;94827.31;;;4.25;78.68
61870;BME280;47810;42.264;23.826;2022-12-29T00:32:59;94829.56;;;4.39;78.57
61870;BME280;47810;42.264;23.826;2022-12-29T00:35:45;94818.25;;;4.38;78.82
61870;BME280;47810;42.264;23.826;2022-12-29T00:38:11;94828.41;;;4.51;78.34
61870;BME280;47810;42.264;23.826;2022-12-29T00:40:56;94825.63;;;4.24;79.09
61870;BME280;47810;42.264;23.826;2022-12-29T00:43:40;94830.94;;;4.19;78.81
61870;BME280;47810;42.264;23.826;2022-12-29T00:46:24;94822.03;;;4.28;78.53
61870;BME280;47810;42.264;23.826;2022-12-29T00:48:50;94827.41;;;4.22;76.79
61870;BME280;47810;42.264;23.826;2022-12-29T00:51:34;94828.38;;;3.82;77.69
61870;BME280;47810;42.264;23.826;2022-12-29T00:53:59;94828.06;;;3.94;77.71
61870;BME280;47810;42.264;23.826;2022-12-29T00:56:25;94834.88;;;4.02;77.41
61870;BME280;47810;42.264;23.826;2022-12-29T00:58:50;94838.22;;;4.07;77.10
61870;BME280;47810;42.264;23.826;2022-12-29T01:01:16;94832.84;;;4.13;77.33
61870;BME280;47810;42.264;23.826;2022-12-29T01:03:41;94836.06;;;4.24;77.17
61870;BME280;47810;42.264;23.826;2022-12-29T01:06:08;94837.00;;;4.22;77.46
61870;BME280;47810;42.264;23.826;2022-12-29T01:08:34;94832.78;;;4.16;78.19
61870;BME280;47810;42.264;23.826;2022-12-29T01:11:04;94830.16;;;4.16;78.26
61870;BME280;47810;42.264;23.826;2022-12-29T01:13:31;94828.66;;;4.41;78.19
61870;BME280;47810;42.264;23.826;2022-12-29T01:15:56;94825.03;;;4.47;78.18
61870;BME280;47810;42.264;23.826;2022-12-29T01:18:22;94829.09;;;4.23;78.67
61870;BME280;47810;42.264;23.826;2022-12-29T01:20:48;94825.47;;;4.30;78.36
61870;BME280;47810;42.264;23.826;2022-12-29T01:23:14;94825.91;;;4.12;78.80
61870;BME280;47810;42.264;23.826;2022-12-29T01:25:40;94820.06;;;4.02;78.21
61870;BME280;47810;42.264;23.826;2022-12-29T01:28:07;94825.19;;;4.39;77.93
61870;BME280;47810;42.264;23.826;2022-12-29T01:30:33;94816.25;;;4.15;78.20
61870;BME280;47810;42.264;23.826;2022-12-29T01:32:59;94812.41;;;4.29;78.69
61870;BME280;47810;42.264;23.826;2022-12-29T01:35:26;94802.19;;;4.19;78.89
61870;BME280;47810;42.264;23.826;2022-12-29T01:37:51;94801.41;;;4.16;79.08
61870;BME280;47810;42.264;23.826;2022-12-29T01:40:17;94787.22;;;4.26;78.99
61870;BME280;47810;42.264;23.826;2022-12-29T01:42:42;94789.50;;;4.06;79.38
61870;BME280;47810;42.264;23.826;2022-12-29T01:45:09;94796.03;;;4.22;79.29
61870;BME280;47810;42.264;23.826;2022-12-29T01:47:40;94798.97;;;4.10;79.21
61870;BME280;47810;42.264;23.826;2022-12-29T01:52:36;94793.81;;;4.07;79.13
61870;BME280;47810;42.264;23.826;2022-12-29T01:55:03;94793.56;;;4.17;78.80
61870;BME280;47810;42.264;23.826;2022-12-29T01:57:31;94790.31;;;4.08;78.15
61870;BME280;47810;42.264;23.826;2022-12-29T02:00:00;94785.50;;;4.25;76.54
61870;BME280;47810;42.264;23.826;2022-12-29T02:02:26;94787.44;;;4.17;76.17
61870;BME280;47810;42.264;23.826;2022-12-29T02:04:52;94785.25;;;4.00;76.70
61870;BME280;47810;42.264;23.826;2022-12-29T02:07:21;94784.41;;;4.00;76.46
61870;BME280;47810;42.264;23.826;2022-12-29T02:09:48;94769.38;;;4.09;76.11
61870;BME280;47810;42.264;23.826;2022-12-29T02:12:16;94764.66;;;3.88;76.75
61870;BME280;47810;42.264;23.826;2022-12-29T02:14:42;94766.88;;;3.69;76.55
61870;BME280;47810;42.264;23.826;2022-12-29T02:23:02;94767.06;;;3.24;78.54
61870;BME280;47810;42.264;23.826;2022-12-29T02:40:22;94765.22;;;3.29;78.39
61870;BME280;47810;42.264;23.826;2022-12-29T02:43:10;94758.28;;;3.28;76.66
61870;BME280;47810;42.264;23.826;2022-12-29T02:50:50;94758.53;;;2.77;78.14
61870;BME280;47810;42.264;23.826;2022-12-29T02:53:19;94747.50;;;2.63;78.81
61870;BME280;47810;42.264;23.826;2022-12-29T02:56:07;94758.66;;;2.69;79.35
61870;BME280;47810;42.264;23.826;2022-12-29T02:58:33;94752.22;;;2.87;78.97
61870;BME280;47810;42.264;23.826;2022-12-29T03:01:03;94757.31;;;2.93;78.47
61870;BME280;47810;42.264;23.826;2022-12-29T03:08:58;94752.59;;;2.69;77.89
61870;BME280;47810;42.264;23.826;2022-12-29T03:11:27;94753.34;;;2.32;78.02
61870;BME280;47810;42.264;23.826;2022-12-29T03:14:26;94751.97;;;2.56;77.19
61870;BME280;47810;42.264;23.826;2022-12-29T03:17:35;94754.13;;;2.36;77.97
61870;BME280;47810;42.264;23.826;2022-12-29T03:20:08;94749.00;;;2.31;78.38
61870;BME280;47810;42.264;23.826;2022-12-29T03:22:34;94745.75;;;2.20;78.93
61870;BME280;47810;42.264;23.826;2022-12-29T03:25:07;94752.72;;;2.18;79.29
61870;BME280;47810;42.264;23.826;2022-12-29T03:27:39;94755.09;;;2.30;79.07
61870;BME280;47810;42.264;23.826;2022-12-29T03:30:06;94760.25;;;2.33;78.72
61870;BME280;47810;42.264;23.826;2022-12-29T03:32:44;94756.59;;;2.43;78.81
61870;BME280;47810;42.264;23.826;2022-12-29T03:35:12;94758.66;;;2.26;79.36
61870;BME280;47810;42.264;23.826;2022-12-29T03:37:40;94758.09;;;2.55;78.98
61870;BME280;47810;42.264;23.826;2022-12-29T03:40:06;94747.84;;;2.88;77.87
61870;BME280;47810;42.264;23.826;2022-12-29T03:42:34;94749.72;;;2.39;79.12
61870;BME280;47810;42.264;23.826;2022-12-29T03:45:00;94749.16;;;2.23;79.65
61870;BME280;47810;42.264;23.826;2022-12-29T03:47:26;94758.56;;;2.32;79.93
61870;BME280;47810;42.264;23.826;2022-12-29T03:49:52;94764.09;;;2.59;79.60
61870;BME280;47810;42.264;23.826;2022-12-29T03:52:17;94757.75;;;2.72;79.63
61870;BME280;47810;42.264;23.826;2022-12-29T03:54:43;94759.91;;;2.51;80.25
61870;BME280;47810;42.264;23.826;2022-12-29T03:57:12;94751.94;;;2.59;79.83
61870;BME280;47810;42.264;23.826;2022-12-29T03:59:37;94756.38;;;2.54;79.86
61870;BME280;47810;42.264;23.826;2022-12-29T04:02:03;94755.56;;;2.50;80.23
61870;BME280;47810;42.264;23.826;2022-12-29T04:04:29;94756.22;;;2.62;79.37
61870;BME280;47810;42.264;23.826;2022-12-29T04:06:54;94755.06;;;2.33;80.49
61870;BME280;47810;42.264;23.826;2022-12-29T04:09:20;94757.88;;;2.22;81.29
61870;BME280;47810;42.264;23.826;2022-12-29T04:11:45;94753.47;;;2.26;81.44
61870;BME280;47810;42.264;23.826;2022-12-29T04:14:11;94755.84;;;2.38;81.11
61870;BME280;47810;42.264;23.826;2022-12-29T04:16:36;94745.78;;;2.62;80.70
61870;BME280;47810;42.264;23.826;2022-12-29T04:19:04;94749.31;;;2.61;80.42
61870;BME280;47810;42.264;23.826;2022-12-29T04:21:30;94758.13;;;2.53;80.86
61870;BME280;47810;42.264;23.826;2022-12-29T04:23:55;94752.66;;;2.22;82.09
61870;BME280;47810;42.264;23.826;2022-12-29T04:26:21;94749.94;;;2.27;81.90
61870;BME280;47810;42.264;23.826;2022-12-29T04:28:46;94746.66;;;2.62;80.72
61870;BME280;47810;42.264;23.826;2022-12-29T04:31:12;94747.50;;;2.63;80.62
61870;BME280;47810;42.264;23.826;2022-12-29T04:33:37;94752.59;;;2.69;80.26
61870;BME280;47810;42.264;23.826;2022-12-29T04:36:03;94757.75;;;2.72;80.54
61870;BME280;47810;42.264;23.826;2022-12-29T04:38:28;94756.91;;;2.71;79.97
61870;BME280;47810;42.264;23.826;2022-12-29T04:40:54;94758.41;;;2.82;80.17
61870;BME280;47810;42.264;23.826;2022-12-29T04:43:20;94762.78;;;2.81;79.89
61870;BME280;47810;42.264;23.826;2022-12-29T04:45:47;94764.97;;;2.59;80.52
61870;BME280;47810;42.264;23.826;2022-12-29T04:48:12;94765.13;;;2.51;81.08
61870;BME280;47810;42.264;23.826;2022-12-29T04:50:38;94758.59;;;2.29;81.77
61870;BME280;47810;42.264;23.826;2022-12-29T04:53:04;94764.47;;;2.40;81.84
61870;BME280;47810;42.264;23.826;2022-12-29T04:55:30;94761.75;;;2.46;81.42
61870;BME280;47810;42.264;23.826;2022-12-29T04:57:55;94760.09;;;2.42;81.28
61870;BME280;47810;42.264;23.826;2022-12-29T05:00:21;94756.75;;;2.34;82.08
61870;BME280;47810;42.264;23.826;2022-12-29T05:02:47;94764.38;;;2.45;82.05
61870;BME280;47810;42.264;23.826;2022-12-29T05:05:12;94767.88;;;2.44;81.75
61870;BME280;47810;42.264;23.826;2022-12-29T05:07:38;94767.63;;;2.56;81.85
61870;BME280;47810;42.264;23.826;2022-12-29T05:10:04;94763.38;;;2.52;81.68
61870;BME280;47810;42.264;23.826;2022-12-29T05:12:30;94765.25;;;2.45;82.01
61870;BME280;47810;42.264;23.826;2022-12-29T05:14:56;94772.03;;;2.52;81.69
61870;BME280;47810;42.264;23.826;2022-12-29T05:20:24;94780.31;;;2.28;82.41
61870;BME280;47810;42.264;23.826;2022-12-29T05:22:50;94774.00;;;2.41;82.19
61870;BME280;47810;42.264;23.826;2022-12-29T05:25:15;94778.88;;;2.13;83.05
61870;BME280;47810;42.264;23.826;2022-12-29T05:27:41;94774.19;;;2.32;82.90
61870;BME280;47810;42.264;23.826;2022-12-29T05:30:07;94786.03;;;2.48;82.38
61870;BME280;47810;42.264;23.826;2022-12-29T05:32:32;94785.41;;;2.34;82.65
61870;BME280;47810;42.264;23.826;2022-12-29T05:34:58;94781.28;;;2.24;83.01
61870;BME280;47810;42.264;23.826;2022-12-29T05:37:23;94789.75;;;2.35;83.02
61870;BME280;47810;42.264;23.826;2022-12-29T05:39:49;94786.69;;;2.12;84.26
61870;BME280;47810;42.264;23.826;2022-12-29T05:42:14;94783.22;;;2.13;83.83
61870;BME280;47810;42.264;23.826;2022-12-29T05:44:40;94785.63;;;1.74;85.01
61870;BME280;47810;42.264;23.826;2022-12-29T05:47:05;94776.53;;;1.99;84.33
61870;BME280;47810;42.264;23.826;2022-12-29T05:49:32;94785.34;;;1.89;84.27
61870;BME280;47810;42.264;23.826;2022-12-29T05:55:00;94777.59;;;1.86;84.61
61870;BME280;47810;42.264;23.826;2022-12-29T05:57:26;94779.88;;;2.04;84.55
61870;BME280;47810;42.264;23.826;2022-12-29T05:59:51;94785.31;;;1.92;84.30
61870;BME280;47810;42.264;23.826;2022-12-29T06:02:17;94790.47;;;1.95;84.46
61870;BME280;47810;42.264;23.826;2022-12-29T06:04:42;94783.22;;;2.13;84.07
61870;BME280;47810;42.264;23.826;2022-12-29T06:07:08;94784.28;;;2.01;84.49
61870;BME280;47810;42.264;23.826;2022-12-29T06:09:34;94790.25;;;2.07;84.16
61870;BME280;47810;42.264;23.826;2022-12-29T06:11:59;94796.84;;;2.27;83.48
61870;BME280;47810;42.264;23.826;2022-12-29T06:14:26;94792.97;;;2.01;83.95
61870;BME280;47810;42.264;23.826;2022-12-29T06:16:51;94797.31;;;2.01;84.13
61870;BME280;47810;42.264;23.826;2022-12-29T06:19:17;94804.47;;;1.90;84.86
61870;BME280;47810;42.264;23.826;2022-12-29T06:21:42;94802.28;;;2.15;84.28
61870;BME280;47810;42.264;23.826;2022-12-29T06:24:08;94804.81;;;2.19;84.29
61870;BME280;47810;42.264;23.826;2022-12-29T06:26:33;94798.50;;;2.31;84.24
61870;BME280;47810;42.264;23.826;2022-12-29T06:28:59;94809.69;;;2.38;84.07
61870;BME280;47810;42.264;23.826;2022-12-29T06:34:11;94807.84;;;2.43;83.68
61870;BME280;47810;42.264;23.826;2022-12-29T06:36:36;94817.25;;;2.51;83.43
61870;BME280;47810;42.264;23.826;2022-12-29T06:39:02;94813.97;;;2.40;83.54
61870;BME280;47810;42.264;23.826;2022-12-29T06:41:27;94822.09;;;2.23;84.22
61870;BME280;47810;42.264;23.826;2022-12-29T06:43:53;94810.88;;;2.20;84.93
61870;BME280;47810;42.264;23.826;2022-12-29T06:46:19;94815.97;;;2.26;84.52
61870;BME280;47810;42.264;23.826;2022-12-29T06:48:45;94814.41;;;2.17;84.47
61870;BME280;47810;42.264;23.826;2022-12-29T06:51:10;94816.47;;;2.48;83.78
61870;BME280;47810;42.264;23.826;2022-12-29T06:53:36;94809.66;;;2.39;83.37
61870;BME280;47810;42.264;23.826;2022-12-29T06:56:01;94802.06;;;2.27;83.67
61870;BME280;47810;42.264;23.826;2022-12-29T06:58:27;94807.44;;;2.18;84.40
61870;BME280;47810;42.264;23.826;2022-12-29T07:00:52;94805.81;;;2.10;84.65
61870;BME280;47810;42.264;23.826;2022-12-29T07:03:18;94808.22;;;2.23;84.39
61870;BME280;47810;42.264;23.826;2022-12-29T07:05:44;94809.66;;;2.39;83.91
61870;BME280;47810;42.264;23.826;2022-12-29T07:08:10;94815.47;;;2.53;82.38
61870;BME280;47810;42.264;23.826;2022-12-29T07:10:36;94818.84;;;2.59;82.33
61870;BME280;47810;42.264;23.826;2022-12-29T07:13:01;94814.66;;;2.51;82.44
61870;BME280;47810;42.264;23.826;2022-12-29T07:15:27;94812.00;;;2.53;82.04
61870;BME280;47810;42.264;23.826;2022-12-29T07:17:54;94817.19;;;2.54;81.96
61870;BME280;47810;42.264;23.826;2022-12-29T07:20:20;94805.91;;;2.54;82.08
61870;BME280;47810;42.264;23.826;2022-12-29T07:22:46;94814.66;;;2.50;82.10
61870;BME280;47810;42.264;23.826;2022-12-29T07:25:12;94808.31;;;2.65;81.77
61870;BME280;47810;42.264;23.826;2022-12-29T07:27:38;94812.44;;;2.75;81.09
61870;BME280;47810;42.264;23.826;2022-12-29T07:30:03;94815.91;;;2.75;80.43
61870;BME280;47810;42.264;23.826;2022-12-29T07:32:31;94812.13;;;2.90;78.94
61870;BME280;47810;42.264;23.826;2022-12-29T07:34:57;94818.78;;;2.62;79.93
61870;BME280;47810;42.264;23.826;2022-12-29T07:37:23;94814.38;;;2.65;80.18
61870;BME280;47810;42.264;23.826;2022-12-29T07:39:48;94810.25;;;2.53;81.86
61870;BME280;47810;42.264;23.826;2022-12-29T07:42:14;94814.16;;;2.76;81.81
61870;BME280;47810;42.264;23.826;2022-12-29T07:44:39;94804.31;;;2.90;81.89
61870;BME280;47810;42.264;23.826;2022-12-29T07:47:05;94813.16;;;2.83;82.23
61870;BME280;47810;42.264;23.826;2022-12-29T07:49:30;94814.88;;;2.84;81.77
61870;BME280;47810;42.264;23.826;2022-12-29T07:51:57;94808.81;;;2.82;81.85
61870;BME280;47810;42.264;23.826;2022-12-29T07:54:22;94808.75;;;2.87;81.31
61870;BME280;47810;42.264;23.826;2022-12-29T07:56:48;94812.16;;;2.89;80.92
61870;BME280;47810;42.264;23.826;2022-12-29T07:59:13;94807.88;;;2.86;81.12
61870;BME280;47810;42.264;23.826;2022-12-29T08:01:39;94816.34;;;2.97;81.18
61870;BME280;47810;42.264;23.826;2022-12-29T08:04:05;94809.53;;;2.90;81.00
61870;BME280;47810;42.264;23.826;2022-12-29T08:06:30;94809.72;;;2.81;82.00
61870;BME280;47810;42.264;23.826;2022-12-29T08:08:56;94815.66;;;2.89;81.87
61870;BME280;47810;42.264;23.826;2022-12-29T08:11:22;94816.63;;;2.82;81.95
61870;BME280;47810;42.264;23.826;2022-12-29T08:13:48;94813.03;;;2.89;81.79
61870;BME280;47810;42.264;23.826;2022-12-29T08:16:14;94812.50;;;2.72;82.30
61870;BME280;47810;42.264;23.826;2022-12-29T08:18:39;94820.38;;;2.69;82.46
61870;BME280;47810;42.264;23.826;2022-12-29T08:21:06;94821.00;;;2.82;82.02
61870;BME280;47810;42.264;23.826;2022-12-29T08:23:31;94820.94;;;2.85;81.84
61870;BME280;47810;42.264;23.826;2022-12-29T08:25:58;94823.53;;;2.86;82.03
61870;BME280;47810;42.264;23.826;2022-12-29T08:28:24;94816.47;;;2.91;81.78
61870;BME280;47810;42.264;23.826;2022-12-29T08:30:49;94816.88;;;2.71;82.57
61870;BME280;47810;42.264;23.826;2022-12-29T08:33:15;94812.69;;;3.04;81.79
61870;BME280;47810;42.264;23.826;2022-12-29T08:35:40;94807.28;;;3.14;81.11
61870;BME280;47810;42.264;23.826;2022-12-29T08:38:06;94803.22;;;3.02;81.57
61870;BME280;47810;42.264;23.826;2022-12-29T08:40:31;94803.88;;;3.12;81.58
61870;BME280;47810;42.264;23.826;2022-12-29T08:42:59;94806.75;;;3.38;80.64
61870;BME280;47810;42.264;23.826;2022-12-29T08:45:28;94802.72;;;3.25;80.88
61870;BME280;47810;42.264;23.826;2022-12-29T08:47:57;94795.81;;;3.22;80.80
61870;BME280;47810;42.264;23.826;2022-12-29T08:50:22;94794.38;;;3.46;80.29
61870;BME280;47810;42.264;23.826;2022-12-29T08:52:48;94790.91;;;3.47;80.12
61870;BME280;47810;42.264;23.826;2022-12-29T08:55:13;94791.34;;;3.65;79.88
61870;BME280;47810;42.264;23.826;2022-12-29T08:57:39;94794.94;;;3.61;79.61
61870;BME280;47810;42.264;23.826;2022-12-29T09:00:05;94789.09;;;3.49;79.74
61870;BME280;47810;42.264;23.826;2022-12-29T09:02:30;94792.47;;;3.55;79.78
61870;BME280;47810;42.264;23.826;2022-12-29T09:04:56;94782.94;;;3.54;79.69
61870;BME280;47810;42.264;23.826;2022-12-29T09:07:23;94776.66;;;3.61;79.61
61870;BME280;47810;42.264;23.826;2022-12-29T09:09:49;94773.63;;;3.79;79.49
61870;BME280;47810;42.264;23.826;2022-12-29T09:12:15;94763.75;;;3.90;79.49
61870;BME280;47810;42.264;23.826;2022-12-29T09:14:41;94763.28;;;4.09;79.27
61870;BME280;47810;42.264;23.826;2022-12-29T09:17:08;94765.16;;;4.36;78.43
61870;BME280;47810;42.264;23.826;2022-12-29T09:19:52;94757.91;;;4.79;76.63
61870;BME280;47810;42.264;23.826;2022-12-29T09:22:18;94760.19;;;4.89;75.77
61870;BME280;47810;42.264;23.826;2022-12-29T09:24:43;94756.66;;;4.90;75.81
61870;BME280;47810;42.264;23.826;2022-12-29T09:27:09;94753.78;;;5.00;75.91
61870;BME280;47810;42.264;23.826;2022-12-29T09:29:34;94749.59;;;5.24;76.11
61870;BME280;47810;42.264;23.826;2022-12-29T09:32:00;94745.06;;;5.57;74.29
61870;BME280;47810;42.264;23.826;2022-12-29T09:34:26;94738.03;;;5.59;74.14
61870;BME280;47810;42.264;23.826;2022-12-29T09:36:51;94733.06;;;5.78;74.87
61870;BME280;47810;42.264;23.826;2022-12-29T09:39:17;94736.00;;;5.95;73.77
61870;BME280;47810;42.264;23.826;2022-12-29T09:41:44;94737.84;;;6.18;73.03
61870;BME280;47810;42.264;23.826;2022-12-29T09:44:18;94733.75;;;6.35;71.89
61870;BME280;47810;42.264;23.826;2022-12-29T09:46:47;94727.66;;;6.59;71.36
61870;BME280;47810;42.264;23.826;2022-12-29T09:51:38;94725.53;;;7.39;69.57
61870;BME280;47810;42.264;23.826;2022-12-29T09:54:51;94721.66;;;7.70;68.10
61870;BME280;47810;42.264;23.826;2022-12-29T09:56:51;94713.13;;;8.28;66.43
61870;BME280;47810;42.264;23.826;2022-12-29T09:59:19;94707.53;;;8.57;66.47
61870;BME280;47810;42.264;23.826;2022-12-29T10:01:53;94708.84;;;8.86;64.65
61870;BME280;47810;42.264;23.826;2022-12-29T10:04:25;94702.25;;;9.53;62.65
61870;BME280;47810;42.264;23.826;2022-12-29T10:06:51;94688.16;;;9.72;62.80
61870;BME280;47810;42.264;23.826;2022-12-29T10:12:34;94682.78;;;10.27;59.73
61870;BME280;47810;42.264;23.826;2022-12-29T10:25:18;94665.44;;;11.38;58.19
61870;BME280;47810;42.264;23.826;2022-12-29T10:27:46;94661.50;;;11.46;57.24
61870;BME280;47810;42.264;23.826;2022-12-29T10:30:12;94667.78;;;11.75;56.98
61870;BME280;47810;42.264;23.826;2022-12-29T10:32:47;94666.47;;;12.44;54.17
61870;BME280;47810;42.264;23.826;2022-12-29T10:35:18;94660.00;;;12.78;54.00
61870;BME280;47810;42.264;23.826;2022-12-29T10:42:54;94667.16;;;11.24;55.45
61870;BME280;47810;42.264;23.826;2022-12-29T10:45:20;94658.94;;;11.28;57.13
61870;BME280;47810;42.264;23.826;2022-12-29T10:47:52;94658.50;;;11.20;56.92
61870;BME280;47810;42.264;23.826;2022-12-29T10:50:19;94659.28;;;11.38;55.25
61870;BME280;47810;42.264;23.826;2022-12-29T10:52:44;94653.31;;;11.34;57.26
61870;BME280;47810;42.264;23.826;2022-12-29T10:55:15;94651.69;;;11.16;56.90
61870;BME280;47810;42.264;23.826;2022-12-29T10:57:45;94644.72;;;11.47;55.23
61870;BME280;47810;42.264;23.826;2022-12-29T11:05:55;94630.81;;;11.43;55.66
61870;BME280;47810;42.264;23.826;2022-12-29T11:08:24;94644.94;;;11.89;53.25
61870;BME280;47810;42.264;23.826;2022-12-29T11:10:58;94630.75;;;11.91;53.88
61870;BME280;47810;42.264;23.826;2022-12-29T11:13:25;94629.16;;;12.18;54.66
61870;BME280;47810;42.264;23.826;2022-12-29T11:15:51;94624.28;;;12.83;52.49
61870;BME280;47810;42.264;23.826;2022-12-29T11:18:24;94616.91;;;12.89;52.13
61870;BME280;47810;42.264;23.826;2022-12-29T11:20:54;94611.03;;;12.83;54.59
61870;BME280;47810;42.264;23.826;2022-12-29T11:23:21;94613.06;;;13.50;50.31
61870;BME280;47810;42.264;23.826;2022-12-29T11:28:46;94602.91;;;13.30;51.53
61870;BME280;47810;42.264;23.826;2022-12-29T11:31:15;94600.91;;;13.60;50.88
61870;BME280;47810;42.264;23.826;2022-12-29T11:33:41;94602.03;;;13.83;50.39
61870;BME280;47810;42.264;23.826;2022-12-29T11:38:54;94587.72;;;14.26;52.05
61870;BME280;47810;42.264;23.826;2022-12-29T11:41:28;94587.50;;;14.41;49.70
61870;BME280;47810;42.264;23.826;2022-12-29T11:43:55;94581.13;;;14.44;47.65
61870;BME280;47810;42.264;23.826;2022-12-29T11:46:25;94586.00;;;14.50;49.46
61870;BME280;47810;42.264;23.826;2022-12-29T11:48:53;94572.94;;;14.85;49.49
61870;BME280;47810;42.264;23.826;2022-12-29T11:51:23;94574.31;;;15.04;48.73
61870;BME280;47810;42.264;23.826;2022-12-29T11:53:56;94576.19;;;15.14;46.29
61870;BME280;47810;42.264;23.826;2022-12-29T11:59:20;94569.09;;;15.76;46.09
61870;BME280;47810;42.264;23.826;2022-12-29T12:01:44;94570.50;;;15.69;45.94
61870;BME280;47810;42.264;23.826;2022-12-29T12:04:17;94569.16;;;15.87;46.28
61870;BME280;47810;42.264;23.826;2022-12-29T12:06:45;94568.00;;;16.02;46.54
61870;BME280;47810;42.264;23.826;2022-12-29T12:12:24;94557.41;;;16.25;43.96
61870;BME280;47810;42.264;23.826;2022-12-29T12:14:54;94569.38;;;16.19;43.16
61870;BME280;47810;42.264;23.826;2022-12-29T12:17:31;94559.81;;;16.17;42.66
61870;BME280;47810;42.264;23.826;2022-12-29T12:23:02;94557.38;;;16.60;43.27
61870;BME280;47810;42.264;23.826;2022-12-29T12:25:44;94552.28;;;16.68;41.58
61870;BME280;47810;42.264;23.826;2022-12-29T12:28:20;94555.19;;;16.65;41.39
61870;BME280;47810;42.264;23.826;2022-12-29T12:30:48;94551.19;;;16.60;42.47
61870;BME280;47810;42.264;23.826;2022-12-29T12:36:18;94543.72;;;16.76;41.65
61870;BME280;47810;42.264;23.826;2022-12-29T12:41:40;94542.75;;;16.99;40.74
61870;BME280;47810;42.264;23.826;2022-12-29T12:54:12;94543.94;;;16.84;40.45
61870;BME280;47810;42.264;23.826;2022-12-29T12:59:30;94549.09;;;16.52;41.23
61870;BME280;47810;42.264;23.826;2022-12-29T13:08:52;94556.91;;;16.20;40.72
61870;BME280;47810;42.264;23.826;2022-12-29T13:10:58;94558.50;;;15.87;41.28
61870;BME280;47810;42.264;23.826;2022-12-29T13:16:22;94563.34;;;14.06;45.32
61870;BME280;47810;42.264;23.826;2022-12-29T13:18:56;94569.59;;;12.54;49.17
61870;BME280;47810;42.264;23.826;2022-12-29T13:27:03;94576.75;;;11.17;53.39
61870;BME280;47810;42.264;23.826;2022-12-29T13:29:33;94581.47;;;10.47;54.94
61870;BME280;47810;42.264;23.826;2022-12-29T13:36:55;94585.94;;;9.77;56.89
61870;BME280;47810;42.264;23.826;2022-12-29T13:39:33;94585.63;;;9.66;57.08
61870;BME280;47810;42.264;23.826;2022-12-29T13:42:01;94584.56;;;9.70;57.65
61870;BME280;47810;42.264;23.826;2022-12-29T13:46:58;94577.94;;;9.44;58.71
61870;BME280;47810;42.264;23.826;2022-12-29T13:49:25;94587.16;;;9.52;58.60
61870;BME280;47810;42.264;23.826;2022-12-29T13:51:55;94585.22;;;9.39;59.17
61870;BME280;47810;42.264;23.826;2022-12-29T13:56:52;94580.25;;;8.96;59.49
61870;BME280;47810;42.264;23.826;2022-12-29T13:59:36;94583.72;;;9.16;59.35
61870;BME280;47810;42.264;23.826;2022-12-29T14:04:57;94592.16;;;8.86;60.52
61870;BME280;47810;42.264;23.826;2022-12-29T14:07:23;94588.97;;;9.16;60.09
61870;BME280;47810;42.264;23.826;2022-12-29T14:09:53;94591.91;;;8.91;60.37
61870;BME280;47810;42.264;23.826;2022-12-29T14:14:47;94591.97;;;8.89;60.65
61870;BME280;47810;42.264;23.826;2022-12-29T14:17:16;94602.59;;;9.06;60.32
61870;BME280;47810;42.264;23.826;2022-12-29T14:19:43;94598.31;;;8.85;60.92
61870;BME280;47810;42.264;23.826;2022-12-29T14:22:10;94600.66;;;9.10;60.81
61870;BME280;47810;42.264;23.826;2022-12-29T14:24:40;94597.22;;;8.89;61.18
61870;BME280;47810;42.264;23.826;2022-12-29T14:34:45;94601.16;;;8.99;61.24
61870;BME280;47810;42.264;23.826;2022-12-29T14:37:22;94600.09;;;9.03;61.11
61870;BME280;47810;42.264;23.826;2022-12-29T14:39:48;94614.19;;;9.02;61.35
61870;BME280;47810;42.264;23.826;2022-12-29T14:42:15;94614.63;;;9.12;61.82
61870;BME280;47810;42.264;23.826;2022-12-29T14:44:48;94611.84;;;9.15;61.36
61870;BME280;47810;42.264;23.826;2022-12-29T14:47:22;94605.03;;;9.28;61.78
61870;BME280;47810;42.264;23.826;2022-12-29T14:49:50;94614.88;;;9.25;62.10
61870;BME280;47810;42.264;23.826;2022-12-29T14:52:20;94610.38;;;9.27;61.64
61870;BME280;47810;42.264;23.826;2022-12-29T14:54:49;94617.72;;;9.20;61.12
61870;BME280;47810;42.264;23.826;2022-12-29T14:57:25;94622.28;;;9.17;61.68
61870;BME280;47810;42.264;23.826;2022-12-29T14:59:54;94624.28;;;9.12;61.76
61870;BME280;47810;42.264;23.826;2022-12-29T15:02:22;94613.34;;;8.83;62.62
61870;BME280;47810;42.264;23.826;2022-12-29T15:04:48;94608.66;;;8.71;62.62
61870;BME280;47810;42.264;23.826;2022-12-29T15:07:14;94620.28;;;8.46;63.77
61870;BME280;47810;42.264;23.826;2022-12-29T15:12:22;94614.75;;;8.71;63.07
61870;BME280;47810;42.264;23.826;2022-12-29T15:14:55;94625.69;;;8.43;63.58
61870;BME280;47810;42.264;23.826;2022-12-29T15:17:30;94623.56;;;8.51;63.66
61870;BME280;47810;42.264;23.826;2022-12-29T15:19:57;94622.66;;;8.32;64.16
61870;BME280;47810;42.264;23.826;2022-12-29T15:22:28;94619.25;;;7.89;65.61
61870;BME280;47810;42.264;23.826;2022-12-29T15:24:55;94620.44;;;7.82;66.30
61870;BME280;47810;42.264;23.826;2022-12-29T15:27:23;94614.25;;;7.83;66.23